createdAt,value
2019-01-31T00:01:07.426Z,93.00
2019-01-31T00:04:33.551Z,92.80
2019-01-31T00:07:54.350Z,92.90
2019-01-31T00:11:03.619Z,92.70
2019-01-31T00:14:49.669Z,92.90
2019-01-31T00:18:04.439Z,92.40
2019-01-31T00:21:13.341Z,92.50
2019-01-31T00:24:24.900Z,91.90
2019-01-31T00:28:13.753Z,91.90
2019-01-31T00:32:12.815Z,92.00
2019-01-31T00:35:53.820Z,91.90
2019-01-31T00:39:07.772Z,92.20
2019-01-31T00:42:44.858Z,92.60
2019-01-31T00:46:03.871Z,93.10
2019-01-31T00:49:46.512Z,93.50
2019-01-31T00:53:23.501Z,93.80
2019-01-31T00:56:20.967Z,94.30
2019-01-31T00:59:41.581Z,94.70
2019-01-31T01:03:19.491Z,94.90
2019-01-31T01:07:08.950Z,95.00
2019-01-31T01:10:18.217Z,95.20
2019-01-31T01:13:28.238Z,95.60
2019-01-31T01:16:38.113Z,95.80
2019-01-31T01:19:51.125Z,95.70
2019-01-31T01:23:18.419Z,95.70
2019-01-31T01:26:59.518Z,96.20
2019-01-31T01:30:19.551Z,96.80
2019-01-31T01:34:08.213Z,97.10
2019-01-31T01:37:08.353Z,97.70
2019-01-31T01:40:41.537Z,98.50
2019-01-31T01:43:51.680Z,98.90
2019-01-31T01:46:56.124Z,99.10
2019-01-31T01:50:08.165Z,99.50
2019-01-31T01:53:07.435Z,99.90
2019-01-31T01:56:18.815Z,99.90
2019-01-31T01:59:41.745Z,99.90
2019-01-31T02:03:19.713Z,99.90
2019-01-31T02:06:56.976Z,99.90
2019-01-31T02:10:16.427Z,99.90
2019-01-31T02:13:43.700Z,99.90
2019-01-31T02:17:24.277Z,99.90
2019-01-31T02:20:33.011Z,99.90
2019-01-31T02:23:45.486Z,99.90
2019-01-31T02:27:21.739Z,99.70
2019-01-31T02:31:06.561Z,99.30
2019-01-31T02:34:47.027Z,98.80
2019-01-31T02:38:10.967Z,98.40
2019-01-31T02:42:02.993Z,98.30
2019-01-31T02:45:31.244Z,98.20
2019-01-31T02:48:56.221Z,98.10
2019-01-31T02:52:23.758Z,98.10
2019-01-31T02:55:39.566Z,98.30
2019-01-31T02:58:53.713Z,98.50
2019-01-31T03:02:34.736Z,98.70
2019-01-31T03:06:00.648Z,99.40
2019-01-31T03:09:36.356Z,99.90
2019-01-31T03:12:48.611Z,99.90
2019-01-31T03:15:55.874Z,99.90
2019-01-31T03:19:00.599Z,99.90
2019-01-31T03:22:28.475Z,99.90
2019-01-31T03:26:04.129Z,99.90
2019-01-31T03:29:44.984Z,99.90
2019-01-31T03:32:46.002Z,99.90
2019-01-31T03:36:14.959Z,99.80
2019-01-31T03:39:39.375Z,99.80
2019-01-31T03:42:59.636Z,99.60
2019-01-31T03:46:42.591Z,99.60
2019-01-31T03:50:06.786Z,99.40
2019-01-31T03:53:16.077Z,99.40
2019-01-31T03:57:01.920Z,99.30
2019-01-31T04:00:26.926Z,99.30
2019-01-31T04:03:32.854Z,99.20
2019-01-31T04:06:26.728Z,99.30
2019-01-31T04:09:04.406Z,99.30
2019-01-31T04:11:41.925Z,99.30
2019-01-31T04:14:19.416Z,99.30
2019-01-31T04:16:57.015Z,99.30
2019-01-31T04:19:34.542Z,99.20
2019-01-31T04:22:12.083Z,99.10
2019-01-31T04:24:49.596Z,99.00
2019-01-31T04:27:27.133Z,98.80
2019-01-31T04:30:04.625Z,98.60
2019-01-31T04:32:42.154Z,98.50
2019-01-31T04:35:19.647Z,98.40
2019-01-31T04:37:57.176Z,98.60
2019-01-31T04:40:34.679Z,98.60
2019-01-31T04:43:12.215Z,98.70
2019-01-31T04:45:49.834Z,98.60
2019-01-31T04:48:27.275Z,98.30
2019-01-31T04:51:04.795Z,98.30
2019-01-31T04:53:42.318Z,98.30
2019-01-31T04:56:19.821Z,98.00
2019-01-31T04:58:57.353Z,97.90
2019-01-31T05:01:34.903Z,97.80
2019-01-31T05:04:12.424Z,97.70
2019-01-31T05:06:49.980Z,97.40
2019-01-31T05:09:27.656Z,97.40
2019-01-31T05:12:05.100Z,97.40
2019-01-31T05:14:42.658Z,97.20
2019-01-31T05:17:20.219Z,97.20
2019-01-31T05:19:57.809Z,97.10
2019-01-31T05:22:35.385Z,97.10
2019-01-31T05:25:14.193Z,96.90
2019-01-31T05:27:51.738Z,96.60
2019-01-31T05:30:29.312Z,96.60
2019-01-31T05:33:06.905Z,96.50
2019-01-31T05:35:44.411Z,96.40
2019-01-31T11:15:23.034Z,75.80
2019-01-31T11:18:32.684Z,76.10
2019-01-31T11:22:34.653Z,75.10
2019-01-31T11:26:27.106Z,74.70
2019-01-31T11:29:57.531Z,73.00
2019-01-31T11:33:40.091Z,73.20
2019-01-31T11:37:14.113Z,71.80
2019-01-31T11:40:45.094Z,71.50
2019-01-31T11:44:11.765Z,72.00
2019-01-31T11:47:47.494Z,71.10
2019-01-31T11:51:33.739Z,69.90
2019-01-31T11:55:11.976Z,68.60
2019-01-31T11:58:45.355Z,67.20
2019-01-31T12:01:22.873Z,66.30
2019-01-31T12:04:17.696Z,65.80
2019-01-31T12:06:55.263Z,65.20
2019-01-31T12:09:32.809Z,65.20
2019-01-31T12:12:10.392Z,64.90
2019-01-31T12:14:47.936Z,64.20
2019-01-31T12:17:25.478Z,63.00
2019-01-31T12:20:03.069Z,63.70
2019-01-31T12:22:40.554Z,63.30
2019-01-31T12:25:18.080Z,61.00
2019-01-31T12:27:55.575Z,60.30
2019-01-31T12:30:33.126Z,59.40
2019-01-31T12:33:10.644Z,57.60
2019-01-31T12:35:48.178Z,58.30
2019-01-31T12:38:36.266Z,56.60
2019-01-31T12:41:03.258Z,56.70
2019-01-31T12:43:40.762Z,56.50
2019-01-31T12:46:18.286Z,55.90
2019-01-31T12:48:55.768Z,55.10
2019-01-31T12:51:33.294Z,55.30
2019-01-31T12:54:10.799Z,54.80
2019-01-31T12:56:48.736Z,53.40
2019-01-31T12:59:26.234Z,53.80
2019-01-31T13:02:06.735Z,54.50
2019-01-31T13:04:44.253Z,54.30
2019-01-31T13:07:21.783Z,55.00
2019-01-31T13:09:59.284Z,54.50
2019-01-31T13:12:48.310Z,53.50
2019-01-31T13:15:18.078Z,52.40
2019-01-31T13:17:57.486Z,50.10
2019-01-31T13:20:35.989Z,48.10
2019-01-31T13:23:13.500Z,46.50
2019-01-31T13:25:51.031Z,44.60
2019-01-31T13:28:28.616Z,43.50
2019-01-31T13:31:06.199Z,43.30
2019-01-31T13:33:46.528Z,42.40
2019-01-31T13:36:21.252Z,41.40
2019-01-31T13:38:58.768Z,40.50
2019-01-31T13:41:36.276Z,38.90
2019-01-31T13:44:13.776Z,38.70
2019-01-31T13:46:51.357Z,37.80
2019-01-31T13:49:28.894Z,37.40
2019-01-31T13:55:02.547Z,36.10
2019-01-31T13:57:40.091Z,36.40
2019-01-31T14:00:18.416Z,36.10
2019-01-31T14:02:55.937Z,38.60
2019-01-31T14:05:33.918Z,40.40
2019-01-31T14:08:11.502Z,40.40
2019-01-31T14:10:49.089Z,41.00
2019-01-31T14:13:26.541Z,41.20
2019-01-31T14:16:04.116Z,41.30
2019-01-31T14:18:53.299Z,42.10
2019-01-31T14:21:27.853Z,42.70
2019-01-31T14:24:05.389Z,43.40
2019-01-31T14:26:42.924Z,44.00
2019-01-31T14:29:20.424Z,45.30
2019-01-31T14:31:57.962Z,44.60
2019-01-31T14:34:35.516Z,43.90
2019-01-31T14:37:13.057Z,42.90
2019-01-31T14:39:50.574Z,41.20
2019-01-31T14:42:28.107Z,39.70
2019-01-31T14:45:05.697Z,38.20
2019-01-31T14:47:43.244Z,37.40
2019-01-31T14:50:24.897Z,36.00
2019-01-31T14:53:05.421Z,35.20
2019-01-31T14:55:42.929Z,34.70
2019-01-31T14:58:20.547Z,34.40
2019-01-31T15:00:58.932Z,34.10
2019-01-31T15:03:40.856Z,33.60
2019-01-31T15:06:18.382Z,33.50
2019-01-31T15:08:55.912Z,33.20
2019-01-31T15:11:33.473Z,33.00
2019-01-31T15:14:10.988Z,32.50
2019-01-31T15:16:48.547Z,32.50
2019-01-31T15:19:26.059Z,32.40
2019-01-31T15:22:03.608Z,32.00
2019-01-31T15:24:41.179Z,32.00
2019-01-31T15:27:18.720Z,32.00
2019-01-31T15:29:56.254Z,32.40
2019-01-31T15:32:33.808Z,32.90
2019-01-31T15:35:12.039Z,33.50
2019-01-31T15:37:49.573Z,34.40
2019-01-31T15:40:40.891Z,35.70
2019-01-31T15:43:18.514Z,36.90
2019-01-31T15:45:56.045Z,38.30
2019-01-31T15:48:33.582Z,40.20
2019-01-31T15:51:11.126Z,42.00
2019-01-31T15:53:48.692Z,44.00
2019-01-31T15:56:26.287Z,45.80
2019-01-31T15:59:03.815Z,47.70
2019-01-31T16:01:41.323Z,49.60
2019-01-31T16:04:18.849Z,51.20
2019-01-31T16:06:56.398Z,52.90
2019-01-31T16:09:33.902Z,54.20
2019-01-31T16:12:11.461Z,55.60
2019-01-31T16:14:55.057Z,57.00
2019-01-31T16:17:26.526Z,58.20
2019-01-31T16:20:04.125Z,59.30
2019-01-31T16:22:41.650Z,60.70
2019-01-31T16:25:19.166Z,62.10
2019-01-31T16:27:57.161Z,63.40
2019-01-31T16:30:34.709Z,64.40
2019-01-31T16:33:12.250Z,66.00
2019-01-31T16:35:53.675Z,66.80
2019-01-31T16:38:28.702Z,67.80
2019-01-31T16:41:06.300Z,68.80
2019-01-31T16:43:43.828Z,69.80
2019-01-31T16:46:21.346Z,70.40
2019-01-31T16:48:58.921Z,71.50
2019-01-31T16:51:36.493Z,72.30
2019-01-31T16:54:14.071Z,74.10
2019-01-31T16:56:51.586Z,75.70
2019-01-31T16:59:29.143Z,75.50
2019-01-31T17:02:06.636Z,75.50
2019-01-31T17:04:44.780Z,75.40
2019-01-31T17:07:22.785Z,76.60
2019-01-31T17:10:00.895Z,77.50
2019-01-31T17:12:38.698Z,77.50
2019-01-31T17:15:18.555Z,77.30
2019-01-31T17:17:56.709Z,77.40
2019-01-31T17:20:55.067Z,77.50
2019-01-31T17:23:33.327Z,77.90
2019-01-31T17:26:11.522Z,78.10
2019-01-31T17:28:49.587Z,78.10
2019-01-31T17:31:27.643Z,78.60
2019-01-31T17:34:05.683Z,79.00
2019-01-31T17:36:45.955Z,79.20
2019-01-31T17:39:21.593Z,79.30
2019-01-31T17:41:59.421Z,79.70
2019-01-31T17:44:37.312Z,80.30
2019-01-31T17:47:15.075Z,80.60
2019-01-31T17:50:01.243Z,81.00
2019-01-31T17:52:38.965Z,81.10
2019-01-31T17:58:05.115Z,82.10
2019-01-31T18:00:51.723Z,82.70
2019-01-31T18:03:29.830Z,83.00
2019-01-31T18:06:08.038Z,83.60
2019-01-31T18:08:46.406Z,84.40
2019-01-31T18:11:27.598Z,84.80
2019-01-31T18:14:05.958Z,85.30
2019-01-31T18:16:43.509Z,85.80
2019-01-31T18:19:21.045Z,86.80
2019-01-31T18:21:58.591Z,87.20
2019-01-31T18:24:36.143Z,87.50
2019-01-31T18:27:13.666Z,88.10
2019-01-31T18:29:52.477Z,88.60
2019-01-31T18:32:30.047Z,89.30
2019-01-31T18:35:09.089Z,89.60
2019-01-31T18:37:50.769Z,89.90
2019-01-31T18:40:34.540Z,90.60
2019-01-31T18:43:13.167Z,91.40
2019-01-31T18:45:53.493Z,91.30
2019-01-31T18:48:30.189Z,91.10
2019-01-31T18:51:08.822Z,91.10
2019-01-31T18:53:48.352Z,91.10
2019-01-31T18:56:27.126Z,91.20
2019-01-31T18:59:05.209Z,91.60
2019-01-31T19:01:43.279Z,91.90
2019-01-31T19:04:21.391Z,91.90
2019-01-31T19:06:59.695Z,92.30
2019-01-31T19:09:40.403Z,92.50
2019-01-31T19:12:18.440Z,92.80
2019-01-31T19:14:56.593Z,93.00
2019-01-31T19:17:36.029Z,93.10
2019-01-31T19:20:23.371Z,93.20
2019-01-31T19:23:05.288Z,93.50
2019-01-31T19:25:43.368Z,94.00
2019-01-31T19:28:21.719Z,94.00
2019-01-31T19:30:59.848Z,94.60
2019-01-31T19:33:37.932Z,95.50
2019-01-31T19:36:15.866Z,95.60
2019-01-31T19:38:54.514Z,95.80
2019-01-31T19:41:33.026Z,95.90
2019-01-31T19:44:11.253Z,96.30
2019-01-31T19:46:49.748Z,96.60
2019-01-31T19:49:27.970Z,97.00
2019-01-31T19:52:06.292Z,96.90
2019-01-31T19:54:43.804Z,96.90
2019-01-31T19:57:22.288Z,96.90
2019-01-31T20:00:00.614Z,97.00
2019-01-31T20:02:39.180Z,97.10
2019-01-31T20:05:17.878Z,97.20
2019-01-31T20:07:56.561Z,97.40
2019-01-31T20:10:34.878Z,97.50
2019-01-31T20:13:14.047Z,97.70
2019-01-31T20:15:55.539Z,97.90
2019-01-31T20:18:34.270Z,98.00
2019-01-31T20:21:12.439Z,98.10
2019-01-31T20:23:50.510Z,98.10
2019-01-31T20:26:28.746Z,98.10
2019-01-31T20:29:06.738Z,98.20
2019-01-31T20:31:45.186Z,98.40
2019-01-31T20:34:23.452Z,98.40
2019-01-31T20:37:00.979Z,98.60
2019-01-31T20:39:38.522Z,98.90
2019-01-31T20:42:16.147Z,98.90
2019-01-31T20:44:53.692Z,98.90
2019-01-31T20:47:31.278Z,98.90
2019-01-31T20:50:12.951Z,98.90
2019-01-31T20:52:50.699Z,99.00
2019-01-31T20:55:28.350Z,99.10
2019-01-31T20:58:05.937Z,99.30
2019-01-31T21:00:48.963Z,99.50
2019-01-31T21:03:26.698Z,99.70
2019-01-31T21:06:04.287Z,99.90
2019-01-31T21:08:41.861Z,99.90
2019-01-31T21:11:19.404Z,99.90
2019-01-31T21:13:56.940Z,99.90
2019-01-31T21:16:34.481Z,99.90
2019-01-31T21:19:12.017Z,99.90
2019-01-31T21:21:49.606Z,99.90
2019-01-31T21:24:27.138Z,99.90
2019-01-31T21:27:04.656Z,99.90
2019-01-31T21:29:42.399Z,99.90
2019-01-31T21:32:20.158Z,99.90
2019-01-31T21:34:57.657Z,99.90
2019-01-31T21:37:35.386Z,99.90
2019-01-31T21:40:14.030Z,99.90
2019-01-31T21:42:51.588Z,99.90
2019-01-31T21:45:29.493Z,99.90
2019-01-31T21:48:08.667Z,99.90
2019-01-31T21:50:46.218Z,99.90
2019-01-31T21:53:23.745Z,99.90
2019-01-31T21:56:01.281Z,99.90
2019-01-31T21:58:38.816Z,99.90
2019-01-31T22:01:16.345Z,99.90
2019-01-31T22:03:53.872Z,99.90
2019-01-31T22:06:31.395Z,99.90
2019-01-31T22:09:12.090Z,99.90
2019-01-31T22:11:49.518Z,99.90
2019-01-31T22:14:27.040Z,99.90
2019-01-31T22:17:14.344Z,99.90
2019-01-31T22:19:42.156Z,99.90
2019-01-31T22:22:19.889Z,99.90
2019-01-31T22:24:57.489Z,99.90
2019-01-31T22:27:35.030Z,99.90
2019-01-31T22:30:23.363Z,99.90
2019-01-31T22:33:00.923Z,99.90
2019-01-31T22:35:38.444Z,99.90
2019-01-31T22:38:15.984Z,99.90
2019-01-31T22:40:53.482Z,99.90
2019-01-31T22:43:31.006Z,99.90
2019-01-31T22:46:08.536Z,99.90
2019-01-31T22:48:46.102Z,99.90
2019-01-31T22:51:23.697Z,99.90
2019-01-31T22:54:01.225Z,99.90
2019-01-31T22:56:38.771Z,99.90
2019-01-31T22:59:16.309Z,99.90
2019-01-31T23:01:57.191Z,99.90
2019-01-31T23:04:34.736Z,99.90
2019-01-31T23:07:12.269Z,99.90
2019-01-31T23:09:49.778Z,99.90
2019-01-31T23:12:27.336Z,99.90
2019-01-31T23:15:04.956Z,99.90
2019-01-31T23:17:42.516Z,99.90
2019-01-31T23:20:20.008Z,99.90
2019-01-31T23:22:57.532Z,99.90
2019-01-31T23:25:40.223Z,99.90
2019-01-31T23:28:12.548Z,99.90
2019-01-31T23:30:50.079Z,99.90
2019-01-31T23:33:27.620Z,99.90
2019-01-31T23:36:05.119Z,99.90
2019-01-31T23:38:42.635Z,99.90
2019-01-31T23:41:20.160Z,99.90
2019-01-31T23:43:57.751Z,99.90
2019-01-31T23:46:35.361Z,99.90
2019-01-31T23:49:12.888Z,99.90
2019-01-31T23:51:50.437Z,99.90
2019-01-31T23:54:27.953Z,99.90
2019-01-31T23:57:05.535Z,99.90
2019-01-31T23:59:43.068Z,99.90
